sensor_id;sensor_type;location;lat;lon;timestamp;P1;durP1;ratioP1;P2;durP2;ratioP2
12713;SDS011;6421;44.470;11.270;2022-09-21T00:01:40;2.50;;;1.83;;
12713;SDS011;6421;44.470;11.270;2022-09-21T00:04:06;2.97;;;1.80;;
12713;SDS011;6421;44.470;11.270;2022-09-21T00:06:33;1.63;;;1.53;;
12713;SDS011;6421;44.470;11.270;2022-09-21T00:08:59;2.70;;;1.77;;
12713;SDS011;6421;44.470;11.270;2022-09-21T00:11:28;4.93;;;1.87;;
12713;SDS011;6421;44.470;11.270;2022-09-21T00:13:55;1.70;;;1.60;;
12713;SDS011;6421;44.470;11.270;2022-09-21T00:16:23;1.80;;;1.70;;
12713;SDS011;6421;44.470;11.270;2022-09-21T00:18:49;3.00;;;1.80;;
12713;SDS011;6421;44.470;11.270;2022-09-21T00:21:16;2.93;;;1.90;;
12713;SDS011;6421;44.470;11.270;2022-09-21T00:23:43;2.43;;;1.77;;
12713;SDS011;6421;44.470;11.270;2022-09-21T00:26:13;1.90;;;1.70;;
12713;SDS011;6421;44.470;11.270;2022-09-21T00:28:39;1.80;;;1.70;;
12713;SDS011;6421;44.470;11.270;2022-09-21T00:31:06;1.90;;;1.80;;
12713;SDS011;6421;44.470;11.270;2022-09-21T00:33:33;1.50;;;1.50;;
12713;SDS011;6421;44.470;11.270;2022-09-21T00:36:03;2.70;;;1.73;;
12713;SDS011;6421;44.470;11.270;2022-09-21T00:38:29;3.03;;;1.90;;
12713;SDS011;6421;44.470;11.270;2022-09-21T00:40:55;1.97;;;1.80;;
12713;SDS011;6421;44.470;11.270;2022-09-21T00:43:21;2.40;;;1.80;;
12713;SDS011;6421;44.470;11.270;2022-09-21T00:45:47;2.10;;;1.90;;
12713;SDS011;6421;44.470;11.270;2022-09-21T00:48:14;1.73;;;1.63;;
12713;SDS011;6421;44.470;11.270;2022-09-21T00:50:43;2.50;;;2.20;;
12713;SDS011;6421;44.470;11.270;2022-09-21T00:53:11;2.87;;;1.60;;
12713;SDS011;6421;44.470;11.270;2022-09-21T00:55:39;3.17;;;2.00;;
12713;SDS011;6421;44.470;11.270;2022-09-21T00:58:08;2.20;;;2.00;;
12713;SDS011;6421;44.470;11.270;2022-09-21T01:00:36;1.97;;;1.80;;
12713;SDS011;6421;44.470;11.270;2022-09-21T01:03:04;2.37;;;2.27;;
12713;SDS011;6421;44.470;11.270;2022-09-21T01:05:30;1.83;;;1.73;;
12713;SDS011;6421;44.470;11.270;2022-09-21T01:07:57;5.00;;;2.10;;
12713;SDS011;6421;44.470;11.270;2022-09-21T01:10:25;3.73;;;2.00;;
12713;SDS011;6421;44.470;11.270;2022-09-21T01:20:53;3.13;;;1.73;;
12713;SDS011;6421;44.470;11.270;2022-09-21T01:31:13;3.67;;;1.80;;
12713;SDS011;6421;44.470;11.270;2022-09-21T01:33:44;2.03;;;1.93;;
12713;SDS011;6421;44.470;11.270;2022-09-21T01:36:12;2.00;;;1.90;;
12713;SDS011;6421;44.470;11.270;2022-09-21T01:38:41;5.03;;;1.90;;
12713;SDS011;6421;44.470;11.270;2022-09-21T01:41:08;2.20;;;1.87;;
12713;SDS011;6421;44.470;11.270;2022-09-21T01:43:41;2.53;;;2.10;;
12713;SDS011;6421;44.470;11.270;2022-09-21T01:46:10;1.93;;;1.70;;
12713;SDS011;6421;44.470;11.270;2022-09-21T01:48:38;4.00;;;1.80;;
12713;SDS011;6421;44.470;11.270;2022-09-21T01:51:07;1.57;;;1.47;;
12713;SDS011;6421;44.470;11.270;2022-09-21T01:53:36;2.30;;;1.90;;
12713;SDS011;6421;44.470;11.270;2022-09-21T01:56:16;2.30;;;1.70;;
12713;SDS011;6421;44.470;11.270;2022-09-21T01:58:45;2.77;;;1.70;;
12713;SDS011;6421;44.470;11.270;2022-09-21T02:01:14;2.13;;;1.80;;
12713;SDS011;6421;44.470;11.270;2022-09-21T02:03:46;2.00;;;1.70;;
12713;SDS011;6421;44.470;11.270;2022-09-21T02:06:14;3.03;;;1.70;;
12713;SDS011;6421;44.470;11.270;2022-09-21T02:08:40;2.07;;;1.87;;
12713;SDS011;6421;44.470;11.270;2022-09-21T02:11:07;1.80;;;1.70;;
12713;SDS011;6421;44.470;11.270;2022-09-21T02:13:37;2.77;;;1.90;;
12713;SDS011;6421;44.470;11.270;2022-09-21T02:21:27;2.73;;;1.70;;
12713;SDS011;6421;44.470;11.270;2022-09-21T02:24:03;2.70;;;1.80;;
12713;SDS011;6421;44.470;11.270;2022-09-21T03:32:20;3.27;;;2.00;;
12713;SDS011;6421;44.470;11.270;2022-09-21T03:34:46;2.30;;;2.00;;
12713;SDS011;6421;44.470;11.270;2022-09-21T03:37:12;2.07;;;1.97;;
12713;SDS011;6421;44.470;11.270;2022-09-21T03:39:38;2.87;;;1.70;;
12713;SDS011;6421;44.470;11.270;2022-09-21T03:42:04;2.05;;;1.95;;
12713;SDS011;6421;44.470;11.270;2022-09-21T03:44:30;3.93;;;2.23;;
12713;SDS011;6421;44.470;11.270;2022-09-21T03:46:56;2.50;;;2.30;;
12713;SDS011;6421;44.470;11.270;2022-09-21T03:49:23;1.93;;;1.67;;
12713;SDS011;6421;44.470;11.270;2022-09-21T03:51:49;2.13;;;2.03;;
12713;SDS011;6421;44.470;11.270;2022-09-21T03:54:15;3.20;;;2.00;;
12713;SDS011;6421;44.470;11.270;2022-09-21T03:56:41;2.63;;;2.05;;
12713;SDS011;6421;44.470;11.270;2022-09-21T03:59:07;2.30;;;2.10;;
12713;SDS011;6421;44.470;11.270;2022-09-21T04:01:33;3.15;;;2.30;;
12713;SDS011;6421;44.470;11.270;2022-09-21T04:04:00;2.85;;;2.05;;
12713;SDS011;6421;44.470;11.270;2022-09-21T04:06:26;4.05;;;2.20;;
12713;SDS011;6421;44.470;11.270;2022-09-21T04:08:52;3.30;;;2.20;;
12713;SDS011;6421;44.470;11.270;2022-09-21T04:11:18;2.35;;;2.00;;
12713;SDS011;6421;44.470;11.270;2022-09-21T04:13:50;3.42;;;2.08;;
12713;SDS011;6421;44.470;11.270;2022-09-21T04:16:20;2.30;;;1.97;;
12713;SDS011;6421;44.470;11.270;2022-09-21T04:18:47;2.20;;;2.00;;
12713;SDS011;6421;44.470;11.270;2022-09-21T04:21:14;2.33;;;1.70;;
12713;SDS011;6421;44.470;11.270;2022-09-21T04:23:41;3.53;;;2.00;;
12713;SDS011;6421;44.470;11.270;2022-09-21T04:26:17;2.70;;;2.00;;
12713;SDS011;6421;44.470;11.270;2022-09-21T04:28:43;2.92;;;2.00;;
12713;SDS011;6421;44.470;11.270;2022-09-21T04:31:09;3.58;;;1.83;;
12713;SDS011;6421;44.470;11.270;2022-09-21T04:33:35;2.92;;;2.00;;
12713;SDS011;6421;44.470;11.270;2022-09-21T04:36:01;3.20;;;2.17;;
12713;SDS011;6421;44.470;11.270;2022-09-21T04:38:29;8.80;;;4.93;;
12713;SDS011;6421;44.470;11.270;2022-09-21T04:40:56;4.18;;;2.92;;
12713;SDS011;6421;44.470;11.270;2022-09-21T04:43:22;5.75;;;2.15;;
12713;SDS011;6421;44.470;11.270;2022-09-21T04:45:48;3.67;;;2.08;;
12713;SDS011;6421;44.470;11.270;2022-09-21T04:48:14;2.83;;;1.98;;
12713;SDS011;6421;44.470;11.270;2022-09-21T04:50:40;2.80;;;2.10;;
12713;SDS011;6421;44.470;11.270;2022-09-21T04:53:06;3.35;;;2.08;;
12713;SDS011;6421;44.470;11.270;2022-09-21T04:55:33;3.20;;;2.00;;
12713;SDS011;6421;44.470;11.270;2022-09-21T04:57:59;2.43;;;2.20;;
12713;SDS011;6421;44.470;11.270;2022-09-21T05:00:25;2.13;;;1.80;;
12713;SDS011;6421;44.470;11.270;2022-09-21T05:02:51;2.67;;;2.00;;
12713;SDS011;6421;44.470;11.270;2022-09-21T05:05:17;3.50;;;2.10;;
12713;SDS011;6421;44.470;11.270;2022-09-21T05:07:44;3.58;;;2.20;;
12713;SDS011;6421;44.470;11.270;2022-09-21T05:10:10;2.50;;;2.20;;
12713;SDS011;6421;44.470;11.270;2022-09-21T05:12:36;5.87;;;2.20;;
12713;SDS011;6421;44.470;11.270;2022-09-21T05:15:02;3.33;;;2.00;;
12713;SDS011;6421;44.470;11.270;2022-09-21T05:17:28;2.20;;;2.00;;
12713;SDS011;6421;44.470;11.270;2022-09-21T05:19:54;2.95;;;2.00;;
12713;SDS011;6421;44.470;11.270;2022-09-21T05:22:20;2.87;;;2.00;;
12713;SDS011;6421;44.470;11.270;2022-09-21T05:24:46;4.28;;;2.10;;
12713;SDS011;6421;44.470;11.270;2022-09-21T05:27:12;2.23;;;2.00;;
12713;SDS011;6421;44.470;11.270;2022-09-21T05:29:39;2.72;;;2.00;;
12713;SDS011;6421;44.470;11.270;2022-09-21T05:32:07;3.33;;;1.98;;
12713;SDS011;6421;44.470;11.270;2022-09-21T05:40:04;3.15;;;1.80;;
12713;SDS011;6421;44.470;11.270;2022-09-21T05:42:30;2.70;;;1.98;;
12713;SDS011;6421;44.470;11.270;2022-09-21T05:44:56;3.70;;;2.20;;
12713;SDS011;6421;44.470;11.270;2022-09-21T05:47:42;6.20;;;2.40;;
12713;SDS011;6421;44.470;11.270;2022-09-21T05:52:52;3.58;;;2.00;;
12713;SDS011;6421;44.470;11.270;2022-09-21T06:00:25;4.38;;;2.30;;
12713;SDS011;6421;44.470;11.270;2022-09-21T06:05:41;4.43;;;2.23;;
12713;SDS011;6421;44.470;11.270;2022-09-21T06:08:08;5.00;;;2.30;;
12713;SDS011;6421;44.470;11.270;2022-09-21T06:10:34;4.68;;;2.22;;
12713;SDS011;6421;44.470;11.270;2022-09-21T06:13:00;3.83;;;2.20;;
12713;SDS011;6421;44.470;11.270;2022-09-21T06:15:26;5.53;;;2.50;;
12713;SDS011;6421;44.470;11.270;2022-09-21T06:17:52;3.80;;;2.50;;
12713;SDS011;6421;44.470;11.270;2022-09-21T06:20:18;6.38;;;2.60;;
12713;SDS011;6421;44.470;11.270;2022-09-21T06:22:44;6.32;;;3.10;;
12713;SDS011;6421;44.470;11.270;2022-09-21T06:25:10;7.72;;;3.03;;
12713;SDS011;6421;44.470;11.270;2022-09-21T06:27:36;5.07;;;2.72;;
12713;SDS011;6421;44.470;11.270;2022-09-21T06:30:02;6.97;;;2.40;;
12713;SDS011;6421;44.470;11.270;2022-09-21T06:32:28;5.80;;;2.72;;
12713;SDS011;6421;44.470;11.270;2022-09-21T06:34:55;5.43;;;2.30;;
12713;SDS011;6421;44.470;11.270;2022-09-21T06:37:21;5.63;;;2.55;;
12713;SDS011;6421;44.470;11.270;2022-09-21T06:39:47;5.50;;;2.53;;
12713;SDS011;6421;44.470;11.270;2022-09-21T06:42:13;3.85;;;2.30;;
12713;SDS011;6421;44.470;11.270;2022-09-21T06:44:39;2.70;;;2.30;;
12713;SDS011;6421;44.470;11.270;2022-09-21T06:47:05;5.05;;;2.90;;
12713;SDS011;6421;44.470;11.270;2022-09-21T06:49:31;3.90;;;2.25;;
12713;SDS011;6421;44.470;11.270;2022-09-21T06:51:57;4.03;;;2.50;;
12713;SDS011;6421;44.470;11.270;2022-09-21T06:54:24;4.47;;;2.47;;
12713;SDS011;6421;44.470;11.270;2022-09-21T06:56:50;5.30;;;2.50;;
12713;SDS011;6421;44.470;11.270;2022-09-21T06:59:16;4.60;;;2.70;;
12713;SDS011;6421;44.470;11.270;2022-09-21T07:01:42;5.43;;;2.65;;
12713;SDS011;6421;44.470;11.270;2022-09-21T07:04:08;3.83;;;2.35;;
12713;SDS011;6421;44.470;11.270;2022-09-21T07:06:34;8.85;;;2.50;;
12713;SDS011;6421;44.470;11.270;2022-09-21T07:09:00;7.50;;;2.72;;
12713;SDS011;6421;44.470;11.270;2022-09-21T07:11:27;6.57;;;2.58;;
12713;SDS011;6421;44.470;11.270;2022-09-21T07:13:53;6.20;;;2.80;;
12713;SDS011;6421;44.470;11.270;2022-09-21T07:16:20;5.97;;;2.30;;
12713;SDS011;6421;44.470;11.270;2022-09-21T07:18:47;4.70;;;2.50;;
12713;SDS011;6421;44.470;11.270;2022-09-21T07:21:13;4.97;;;2.50;;
12713;SDS011;6421;44.470;11.270;2022-09-21T07:23:39;5.03;;;2.20;;
12713;SDS011;6421;44.470;11.270;2022-09-21T07:26:06;3.78;;;2.35;;
12713;SDS011;6421;44.470;11.270;2022-09-21T07:28:33;4.23;;;2.00;;
12713;SDS011;6421;44.470;11.270;2022-09-21T07:31:10;3.65;;;2.10;;
12713;SDS011;6421;44.470;11.270;2022-09-21T07:33:37;2.25;;;1.77;;
12713;SDS011;6421;44.470;11.270;2022-09-21T07:36:04;3.13;;;1.83;;
12713;SDS011;6421;44.470;11.270;2022-09-21T07:38:34;3.03;;;1.63;;
12713;SDS011;6421;44.470;11.270;2022-09-21T07:41:01;2.90;;;1.55;;
12713;SDS011;6421;44.470;11.270;2022-09-21T07:43:27;2.97;;;1.70;;
12713;SDS011;6421;44.470;11.270;2022-09-21T07:45:53;6.93;;;1.98;;
12713;SDS011;6421;44.470;11.270;2022-09-21T07:48:20;3.35;;;1.88;;
12713;SDS011;6421;44.470;11.270;2022-09-21T07:50:46;2.50;;;1.80;;
12713;SDS011;6421;44.470;11.270;2022-09-21T07:53:13;2.50;;;1.58;;
12713;SDS011;6421;44.470;11.270;2022-09-21T07:55:40;4.95;;;1.85;;
12713;SDS011;6421;44.470;11.270;2022-09-21T07:58:06;5.10;;;1.92;;
12713;SDS011;6421;44.470;11.270;2022-09-21T08:00:51;2.05;;;1.40;;
12713;SDS011;6421;44.470;11.270;2022-09-21T08:03:17;4.20;;;1.70;;
12713;SDS011;6421;44.470;11.270;2022-09-21T08:05:43;3.95;;;1.63;;
12713;SDS011;6421;44.470;11.270;2022-09-21T08:08:09;4.32;;;1.70;;
12713;SDS011;6421;44.470;11.270;2022-09-21T08:10:35;5.45;;;1.40;;
12713;SDS011;6421;44.470;11.270;2022-09-21T08:13:01;1.98;;;1.48;;
12713;SDS011;6421;44.470;11.270;2022-09-21T08:15:27;3.08;;;1.42;;
12713;SDS011;6421;44.470;11.270;2022-09-21T08:17:53;3.17;;;1.50;;
12713;SDS011;6421;44.470;11.270;2022-09-21T08:20:21;5.10;;;1.60;;
12713;SDS011;6421;44.470;11.270;2022-09-21T08:22:47;2.38;;;1.38;;
12713;SDS011;6421;44.470;11.270;2022-09-21T08:25:13;3.97;;;1.40;;
12713;SDS011;6421;44.470;11.270;2022-09-21T08:27:39;1.90;;;1.35;;
12713;SDS011;6421;44.470;11.270;2022-09-21T08:30:06;6.03;;;2.10;;
12713;SDS011;6421;44.470;11.270;2022-09-21T08:32:33;5.82;;;1.88;;
12713;SDS011;6421;44.470;11.270;2022-09-21T08:34:59;3.33;;;1.23;;
12713;SDS011;6421;44.470;11.270;2022-09-21T08:37:25;2.00;;;1.50;;
12713;SDS011;6421;44.470;11.270;2022-09-21T08:39:51;3.13;;;1.47;;
12713;SDS011;6421;44.470;11.270;2022-09-21T08:42:36;1.67;;;1.40;;
12713;SDS011;6421;44.470;11.270;2022-09-21T08:45:05;3.33;;;1.45;;
12713;SDS011;6421;44.470;11.270;2022-09-21T08:47:39;4.55;;;1.63;;
12713;SDS011;6421;44.470;11.270;2022-09-21T08:50:18;3.45;;;1.30;;
12713;SDS011;6421;44.470;11.270;2022-09-21T08:52:49;2.95;;;1.40;;
12713;SDS011;6421;44.470;11.270;2022-09-21T08:55:17;3.22;;;1.52;;
12713;SDS011;6421;44.470;11.270;2022-09-21T08:57:44;7.70;;;1.70;;
12713;SDS011;6421;44.470;11.270;2022-09-21T09:00:13;4.35;;;2.10;;
12713;SDS011;6421;44.470;11.270;2022-09-21T09:10:43;2.58;;;1.25;;
12713;SDS011;6421;44.470;11.270;2022-09-21T09:13:28;5.78;;;2.47;;
12713;SDS011;6421;44.470;11.270;2022-09-21T09:16:06;2.47;;;1.55;;
12713;SDS011;6421;44.470;11.270;2022-09-21T09:18:37;3.25;;;1.60;;
12713;SDS011;6421;44.470;11.270;2022-09-21T09:21:08;3.67;;;2.00;;
12713;SDS011;6421;44.470;11.270;2022-09-21T09:23:36;5.13;;;1.80;;
12713;SDS011;6421;44.470;11.270;2022-09-21T09:26:13;4.10;;;1.40;;
12713;SDS011;6421;44.470;11.270;2022-09-21T09:28:40;3.00;;;1.50;;
12713;SDS011;6421;44.470;11.270;2022-09-21T09:31:14;2.70;;;1.60;;
12713;SDS011;6421;44.470;11.270;2022-09-21T09:33:47;2.50;;;1.40;;
12713;SDS011;6421;44.470;11.270;2022-09-21T09:36:17;3.67;;;1.58;;
12713;SDS011;6421;44.470;11.270;2022-09-21T09:44:00;3.33;;;1.25;;
12713;SDS011;6421;44.470;11.270;2022-09-21T09:52:07;4.82;;;1.50;;
12713;SDS011;6421;44.470;11.270;2022-09-21T09:54:34;2.40;;;1.50;;
12713;SDS011;6421;44.470;11.270;2022-09-21T09:57:03;2.75;;;1.20;;
12713;SDS011;6421;44.470;11.270;2022-09-21T10:02:04;3.00;;;1.60;;
12713;SDS011;6421;44.470;11.270;2022-09-21T10:04:30;2.70;;;1.35;;
12713;SDS011;6421;44.470;11.270;2022-09-21T10:06:58;1.65;;;1.15;;
12713;SDS011;6421;44.470;11.270;2022-09-21T10:09:29;2.83;;;1.38;;
12713;SDS011;6421;44.470;11.270;2022-09-21T10:14:43;3.05;;;1.13;;
12713;SDS011;6421;44.470;11.270;2022-09-21T10:17:13;1.65;;;1.10;;
12713;SDS011;6421;44.470;11.270;2022-09-21T10:19:41;2.40;;;1.02;;
12713;SDS011;6421;44.470;11.270;2022-09-21T10:22:13;2.92;;;1.40;;
12713;SDS011;6421;44.470;11.270;2022-09-21T10:24:40;2.38;;;1.30;;
12713;SDS011;6421;44.470;11.270;2022-09-21T10:27:13;2.08;;;1.10;;
12713;SDS011;6421;44.470;11.270;2022-09-21T10:29:46;2.92;;;1.33;;
12713;SDS011;6421;44.470;11.270;2022-09-21T10:34:40;3.30;;;1.30;;
12713;SDS011;6421;44.470;11.270;2022-09-21T10:37:25;3.33;;;1.30;;
12713;SDS011;6421;44.470;11.270;2022-09-21T10:39:52;2.97;;;1.60;;
12713;SDS011;6421;44.470;11.270;2022-09-21T10:42:18;4.07;;;1.70;;
12713;SDS011;6421;44.470;11.270;2022-09-21T10:47:57;2.72;;;1.20;;
12713;SDS011;6421;44.470;11.270;2022-09-21T10:49:57;2.15;;;1.38;;
12713;SDS011;6421;44.470;11.270;2022-09-21T10:52:31;2.08;;;1.10;;
12713;SDS011;6421;44.470;11.270;2022-09-21T10:54:58;2.75;;;1.40;;
12713;SDS011;6421;44.470;11.270;2022-09-21T10:57:24;4.53;;;1.67;;
12713;SDS011;6421;44.470;11.270;2022-09-21T10:59:51;2.45;;;1.00;;
12713;SDS011;6421;44.470;11.270;2022-09-21T11:02:36;1.58;;;1.20;;
12713;SDS011;6421;44.470;11.270;2022-09-21T11:07:34;3.33;;;1.40;;
12713;SDS011;6421;44.470;11.270;2022-09-21T11:10:14;5.45;;;1.50;;
12713;SDS011;6421;44.470;11.270;2022-09-21T11:12:59;2.40;;;1.20;;
12713;SDS011;6421;44.470;11.270;2022-09-21T11:15:31;2.42;;;1.15;;
12713;SDS011;6421;44.470;11.270;2022-09-21T11:18:47;2.53;;;1.10;;
12713;SDS011;6421;44.470;11.270;2022-09-21T11:51:06;3.58;;;1.70;;
12713;SDS011;6421;44.470;11.270;2022-09-21T12:01:33;1.05;;;0.88;;
12713;SDS011;6421;44.470;11.270;2022-09-21T12:14:10;2.05;;;1.23;;
12713;SDS011;6421;44.470;11.270;2022-09-21T12:19:28;2.63;;;1.20;;
12713;SDS011;6421;44.470;11.270;2022-09-21T12:22:00;2.47;;;1.30;;
12713;SDS011;6421;44.470;11.270;2022-09-21T12:24:32;2.55;;;1.20;;
12713;SDS011;6421;44.470;11.270;2022-09-21T12:27:01;2.40;;;1.10;;
12713;SDS011;6421;44.470;11.270;2022-09-21T12:29:38;1.80;;;0.90;;
12713;SDS011;6421;44.470;11.270;2022-09-21T12:32:24;2.95;;;1.13;;
12713;SDS011;6421;44.470;11.270;2022-09-21T12:34:56;2.10;;;1.10;;
12713;SDS011;6421;44.470;11.270;2022-09-21T12:37:37;6.68;;;1.30;;
12713;SDS011;6421;44.470;11.270;2022-09-21T12:45:26;2.38;;;1.20;;
12713;SDS011;6421;44.470;11.270;2022-09-21T12:47:59;2.38;;;1.13;;
12713;SDS011;6421;44.470;11.270;2022-09-21T12:53:13;1.58;;;1.00;;
12713;SDS011;6421;44.470;11.270;2022-09-21T13:08:46;3.05;;;1.00;;
12713;SDS011;6421;44.470;11.270;2022-09-21T13:11:12;3.40;;;1.13;;
12713;SDS011;6421;44.470;11.270;2022-09-21T13:13:51;3.20;;;1.10;;
12713;SDS011;6421;44.470;11.270;2022-09-21T13:16:31;1.85;;;1.10;;
12713;SDS011;6421;44.470;11.270;2022-09-21T13:18:58;1.38;;;1.02;;
12713;SDS011;6421;44.470;11.270;2022-09-21T13:21:26;1.65;;;0.85;;
12713;SDS011;6421;44.470;11.270;2022-09-21T13:23:59;3.58;;;1.20;;
12713;SDS011;6421;44.470;11.270;2022-09-21T13:26:39;1.00;;;0.80;;
12713;SDS011;6421;44.470;11.270;2022-09-21T13:44:58;10.13;;;2.57;;
12713;SDS011;6421;44.470;11.270;2022-09-21T13:47:27;11.40;;;2.23;;
12713;SDS011;6421;44.470;11.270;2022-09-21T13:49:55;3.40;;;1.17;;
12713;SDS011;6421;44.470;11.270;2022-09-21T13:52:26;2.07;;;1.27;;
12713;SDS011;6421;44.470;11.270;2022-09-21T13:54:54;1.00;;;0.93;;
12713;SDS011;6421;44.470;11.270;2022-09-21T14:00:02;0.97;;;0.90;;
12713;SDS011;6421;44.470;11.270;2022-09-21T14:02:30;1.97;;;1.17;;
12713;SDS011;6421;44.470;11.270;2022-09-21T14:05:02;6.75;;;1.02;;
12713;SDS011;6421;44.470;11.270;2022-09-21T14:28:15;0.70;;;0.70;;
12713;SDS011;6421;44.470;11.270;2022-09-21T14:30:47;1.00;;;0.90;;
12713;SDS011;6421;44.470;11.270;2022-09-21T14:33:21;2.67;;;1.17;;
12713;SDS011;6421;44.470;11.270;2022-09-21T14:35:50;2.17;;;1.10;;
12713;SDS011;6421;44.470;11.270;2022-09-21T14:38:18;1.20;;;0.80;;
12713;SDS011;6421;44.470;11.270;2022-09-21T14:40:45;3.30;;;0.90;;
12713;SDS011;6421;44.470;11.270;2022-09-21T14:43:17;1.10;;;1.10;;
12713;SDS011;6421;44.470;11.270;2022-09-21T14:48:42;2.60;;;0.90;;
12713;SDS011;6421;44.470;11.270;2022-09-21T14:52:00;2.47;;;0.90;;
12713;SDS011;6421;44.470;11.270;2022-09-21T14:56:34;1.00;;;0.97;;
12713;SDS011;6421;44.470;11.270;2022-09-21T14:59:09;1.10;;;1.10;;
12713;SDS011;6421;44.470;11.270;2022-09-21T15:01:39;2.70;;;1.17;;
12713;SDS011;6421;44.470;11.270;2022-09-21T15:12:26;1.10;;;1.00;;
12713;SDS011;6421;44.470;11.270;2022-09-21T15:15:01;1.37;;;1.00;;
12713;SDS011;6421;44.470;11.270;2022-09-21T15:17:31;0.90;;;0.90;;
12713;SDS011;6421;44.470;11.270;2022-09-21T15:19:58;1.13;;;1.13;;
12713;SDS011;6421;44.470;11.270;2022-09-21T15:22:25;7.07;;;5.30;;
12713;SDS011;6421;44.470;11.270;2022-09-21T15:24:55;7.57;;;5.57;;
12713;SDS011;6421;44.470;11.270;2022-09-21T15:27:23;1.80;;;1.53;;
12713;SDS011;6421;44.470;11.270;2022-09-21T15:29:53;2.20;;;1.37;;
12713;SDS011;6421;44.470;11.270;2022-09-21T15:32:26;1.70;;;1.60;;
12713;SDS011;6421;44.470;11.270;2022-09-21T15:34:58;7.70;;;1.80;;
12713;SDS011;6421;44.470;11.270;2022-09-21T15:37:26;11.13;;;1.70;;
12713;SDS011;6421;44.470;11.270;2022-09-21T15:40:02;3.80;;;3.17;;
12713;SDS011;6421;44.470;11.270;2022-09-21T15:42:28;1.73;;;1.63;;
12713;SDS011;6421;44.470;11.270;2022-09-21T15:45:09;1.57;;;1.47;;
12713;SDS011;6421;44.470;11.270;2022-09-21T15:47:37;4.87;;;1.40;;
12713;SDS011;6421;44.470;11.270;2022-09-21T15:50:10;1.93;;;1.10;;
12713;SDS011;6421;44.470;11.270;2022-09-21T15:52:37;3.40;;;1.60;;
12713;SDS011;6421;44.470;11.270;2022-09-21T15:55:12;6.63;;;1.50;;
12713;SDS011;6421;44.470;11.270;2022-09-21T15:57:40;2.33;;;1.20;;
12713;SDS011;6421;44.470;11.270;2022-09-21T16:02:39;1.30;;;1.20;;
12713;SDS011;6421;44.470;11.270;2022-09-21T16:05:06;1.60;;;1.10;;
12713;SDS011;6421;44.470;11.270;2022-09-21T16:07:37;1.33;;;1.20;;
12713;SDS011;6421;44.470;11.270;2022-09-21T16:12:51;5.30;;;1.10;;
12713;SDS011;6421;44.470;11.270;2022-09-21T16:15:25;2.97;;;1.30;;
12713;SDS011;6421;44.470;11.270;2022-09-21T16:20:22;1.10;;;1.00;;
12713;SDS011;6421;44.470;11.270;2022-09-21T16:22:52;1.17;;;0.97;;
12713;SDS011;6421;44.470;11.270;2022-09-21T16:25:29;1.00;;;1.00;;
12713;SDS011;6421;44.470;11.270;2022-09-21T16:28:43;1.33;;;1.00;;
12713;SDS011;6421;44.470;11.270;2022-09-21T16:30:46;1.33;;;1.00;;
12713;SDS011;6421;44.470;11.270;2022-09-21T16:35:57;1.30;;;1.20;;
12713;SDS011;6421;44.470;11.270;2022-09-21T16:38:25;2.37;;;1.27;;
12713;SDS011;6421;44.470;11.270;2022-09-21T16:40:51;3.80;;;3.47;;
12713;SDS011;6421;44.470;11.270;2022-09-21T16:43:18;1.90;;;1.80;;
12713;SDS011;6421;44.470;11.270;2022-09-21T16:45:47;1.50;;;1.40;;
12713;SDS011;6421;44.470;11.270;2022-09-21T16:48:13;1.50;;;1.30;;
12713;SDS011;6421;44.470;11.270;2022-09-21T16:50:39;2.07;;;1.40;;
12713;SDS011;6421;44.470;11.270;2022-09-21T16:53:07;1.80;;;1.70;;
12713;SDS011;6421;44.470;11.270;2022-09-21T16:55:33;4.93;;;1.67;;
12713;SDS011;6421;44.470;11.270;2022-09-21T16:57:59;1.57;;;1.10;;
12713;SDS011;6421;44.470;11.270;2022-09-21T17:00:27;1.30;;;1.20;;
12713;SDS011;6421;44.470;11.270;2022-09-21T17:02:55;3.77;;;1.40;;
12713;SDS011;6421;44.470;11.270;2022-09-21T17:05:21;1.80;;;1.07;;
12713;SDS011;6421;44.470;11.270;2022-09-21T17:07:48;3.60;;;1.30;;
12713;SDS011;6421;44.470;11.270;2022-09-21T17:10:16;1.50;;;1.10;;
12713;SDS011;6421;44.470;11.270;2022-09-21T17:12:43;1.43;;;1.10;;
12713;SDS011;6421;44.470;11.270;2022-09-21T17:15:11;3.73;;;1.00;;
12713;SDS011;6421;44.470;11.270;2022-09-21T17:17:37;1.40;;;1.20;;
12713;SDS011;6421;44.470;11.270;2022-09-21T17:20:14;4.23;;;1.07;;
12713;SDS011;6421;44.470;11.270;2022-09-21T17:22:41;3.40;;;1.17;;
12713;SDS011;6421;44.470;11.270;2022-09-21T17:25:07;1.23;;;1.20;;
12713;SDS011;6421;44.470;11.270;2022-09-21T17:27:33;2.20;;;1.23;;
12713;SDS011;6421;44.470;11.270;2022-09-21T17:29:59;4.93;;;1.53;;
12713;SDS011;6421;44.470;11.270;2022-09-21T17:32:27;1.67;;;1.50;;
12713;SDS011;6421;44.470;11.270;2022-09-21T17:34:55;4.03;;;1.90;;
12713;SDS011;6421;44.470;11.270;2022-09-21T17:37:22;5.23;;;3.00;;
12713;SDS011;6421;44.470;11.270;2022-09-21T17:39:49;1.43;;;1.33;;
12713;SDS011;6421;44.470;11.270;2022-09-21T17:42:16;2.30;;;1.60;;
12713;SDS011;6421;44.470;11.270;2022-09-21T17:45:03;4.03;;;1.47;;
12713;SDS011;6421;44.470;11.270;2022-09-21T17:47:36;7.33;;;1.90;;
12713;SDS011;6421;44.470;11.270;2022-09-21T17:52:37;6.13;;;3.43;;
12713;SDS011;6421;44.470;11.270;2022-09-21T17:55:22;10.27;;;5.43;;
12713;SDS011;6421;44.470;11.270;2022-09-21T18:02:43;5.13;;;2.97;;
12713;SDS011;6421;44.470;11.270;2022-09-21T18:05:25;3.80;;;1.60;;
12713;SDS011;6421;44.470;11.270;2022-09-21T18:07:52;3.27;;;2.00;;
12713;SDS011;6421;44.470;11.270;2022-09-21T18:10:18;2.97;;;1.97;;
12713;SDS011;6421;44.470;11.270;2022-09-21T18:18:22;1.50;;;1.40;;
12713;SDS011;6421;44.470;11.270;2022-09-21T18:21:10;1.10;;;1.10;;
12713;SDS011;6421;44.470;11.270;2022-09-21T18:26:22;1.30;;;1.17;;
12713;SDS011;6421;44.470;11.270;2022-09-21T18:28:49;2.50;;;1.40;;
12713;SDS011;6421;44.470;11.270;2022-09-21T18:39:35;0.97;;;0.97;;
12713;SDS011;6421;44.470;11.270;2022-09-21T18:57:49;1.30;;;1.20;;
12713;SDS011;6421;44.470;11.270;2022-09-21T19:00:15;1.17;;;1.08;;
12713;SDS011;6421;44.470;11.270;2022-09-21T19:02:41;0.90;;;0.90;;
12713;SDS011;6421;44.470;11.270;2022-09-21T19:05:10;0.73;;;0.73;;
12713;SDS011;6421;44.470;11.270;2022-09-21T19:07:38;1.30;;;0.90;;
12713;SDS011;6421;44.470;11.270;2022-09-21T19:10:08;1.53;;;1.10;;
12713;SDS011;6421;44.470;11.270;2022-09-21T19:12:51;1.73;;;0.90;;
12713;SDS011;6421;44.470;11.270;2022-09-21T19:20:40;1.27;;;1.17;;
12713;SDS011;6421;44.470;11.270;2022-09-21T19:23:21;3.03;;;1.20;;
12713;SDS011;6421;44.470;11.270;2022-09-21T19:25:51;1.20;;;1.10;;
12713;SDS011;6421;44.470;11.270;2022-09-21T19:31:07;1.00;;;1.00;;
12713;SDS011;6421;44.470;11.270;2022-09-21T19:33:34;1.27;;;1.20;;
12713;SDS011;6421;44.470;11.270;2022-09-21T19:36:00;2.27;;;1.60;;
12713;SDS011;6421;44.470;11.270;2022-09-21T19:38:27;1.50;;;1.40;;
12713;SDS011;6421;44.470;11.270;2022-09-21T19:41:03;2.30;;;1.73;;
12713;SDS011;6421;44.470;11.270;2022-09-21T19:43:36;2.13;;;1.10;;
12713;SDS011;6421;44.470;11.270;2022-09-21T19:48:46;4.03;;;1.27;;
12713;SDS011;6421;44.470;11.270;2022-09-21T19:51:18;3.43;;;1.60;;
12713;SDS011;6421;44.470;11.270;2022-09-21T19:53:45;1.33;;;1.27;;
12713;SDS011;6421;44.470;11.270;2022-09-21T19:56:33;1.20;;;1.20;;
12713;SDS011;6421;44.470;11.270;2022-09-21T19:59:20;1.43;;;1.30;;
12713;SDS011;6421;44.470;11.270;2022-09-21T20:02:05;3.33;;;1.40;;
12713;SDS011;6421;44.470;11.270;2022-09-21T20:04:35;2.50;;;1.50;;
12713;SDS011;6421;44.470;11.270;2022-09-21T20:07:28;1.63;;;1.53;;
12713;SDS011;6421;44.470;11.270;2022-09-21T20:10:10;1.67;;;1.57;;
12713;SDS011;6421;44.470;11.270;2022-09-21T20:13:15;2.00;;;1.90;;
12713;SDS011;6421;44.470;11.270;2022-09-21T20:15:35;2.10;;;1.73;;
12713;SDS011;6421;44.470;11.270;2022-09-21T20:20:41;4.40;;;1.63;;
12713;SDS011;6421;44.470;11.270;2022-09-21T20:23:08;2.30;;;1.90;;
12713;SDS011;6421;44.470;11.270;2022-09-21T20:28:20;1.43;;;1.37;;